Serenade Of The Seas — C6FV8 — position and weather

sailwx.info

Track history (hours):
 
Tides and Currents Weather Stations Pressure Air Temp Water Temp Dewpoint Dewpoint Depression Visibility Wind Speed Wind Dir Waves Ship Positions

Serenade Of The Seas

Operator: Royal Caribbean Cruises Ltd

Last reported at 2016-Jun-25 19:33 UTC. Time now 2016-Jun-25 19:43 UTC.
Position N 59°21' E 018°08'.

Length 294 m; draft 8.6 m.

Type: Ship. MMSI: 311492000.

Date/timePositionNaut miles runAvg speedWind from/ knotsBaromVisibWave heightAir tempDewpointWater temp
2016-Jun-25 19:33N 59°21' E 018°08'0 0.0
2016-Jun-25 18:33N 59°21' E 018°08'0 0.0
2016-Jun-25 17:33N 59°21' E 018°08'0 0.0
2016-Jun-25 16:33N 59°21' E 018°08'0 0.0
2016-Jun-25 15:33N 59°21' E 018°08'0 0.0
2016-Jun-25 14:33N 59°21' E 018°08'0 0.0
2016-Jun-25 13:33N 59°21' E 018°08'0 0.0
2016-Jun-25 12:33N 59°21' E 018°08'0 0.0
2016-Jun-25 11:33N 59°21' E 018°08'0 0.0
2016-Jun-25 10:30N 59°21' E 018°08'0 0.0
2016-Jun-25 09:30N 59°21' E 018°08'2 2.2
2016-Jun-25 08:31N 59°20' E 018°12'  
2016-Jun-23 04:07N 59°15' E 021°52'5 8.6
2016-Jun-23 03:33N 59°18' E 021°59'9 8.7
2016-Jun-23 02:33N 59°23' E 022°13'9 8.8
2016-Jun-23 01:34N 59°28' E 022°27'11 8.7
2016-Jun-23 00:21N 59°32' E 022°46'7 8.8
2016-Jun-22 23:34N 59°34' E 022°59'9 8.8
2016-Jun-22 22:33N 59°37' E 023°16'9 8.8
2016-Jun-22 21:34N 59°39' E 023°32'9 8.8
2016-Jun-22 20:34N 59°42' E 023°49'9 8.8
2016-Jun-22 19:33N 59°44' E 024°06'9 8.7
2016-Jun-22 18:33N 59°47' E 024°22'9 8.7
2016-Jun-22 17:33N 59°50' E 024°38'21 1.3
2016-Jun-22 01:31N 59°55' E 025°19'2316.0
2016-Jun-22 00:04N 59°57' E 026°05'917.1
2016-Jun-21 23:33N 59°60' E 026°22'1717.2
2016-Jun-21 22:34N 59°60' E 026°57'1716.9
2016-Jun-21 21:33N 60°07' E 027°28'1616.2
2016-Jun-21 20:33N 60°10' E 027°60'1717.2
2016-Jun-21 19:33N 60°04' E 028°31'3715.2
2016-Jun-21 17:08N 59°59' E 029°44'610.9
2016-Jun-21 16:33N 59°56' E 029°55'8 8.1
2016-Jun-21 15:33N 59°57' E 030°12'0 0.0
2016-Jun-21 14:33N 59°57' E 030°12'0 0.0
2016-Jun-21 13:33N 59°57' E 030°12'0 0.0
2016-Jun-21 12:33N 59°57' E 030°12'0 0.0
2016-Jun-21 11:33N 59°57' E 030°12'0 0.0
2016-Jun-21 10:33N 59°57' E 030°12'0 0.0
2016-Jun-21 09:33N 59°57' E 030°12'0 0.0
2016-Jun-21 08:33N 59°57' E 030°12'0 0.0
2016-Jun-21 07:33N 59°57' E 030°12'0 0.0
2016-Jun-21 05:33N 59°57' E 030°12'0 0.0
2016-Jun-21 04:33N 59°57' E 030°12'0 0.0
2016-Jun-21 03:33N 59°57' E 030°12'0 0.0
2016-Jun-21 02:33N 59°57' E 030°12'0 0.0
2016-Jun-21 01:33N 59°57' E 030°12'0 0.0
2016-Jun-21 00:33N 59°57' E 030°12'0 0.0
2016-Jun-20 23:33N 59°57' E 030°12'0 0.0
2016-Jun-20 22:33N 59°57' E 030°12'0 0.0
2016-Jun-20 21:33N 59°57' E 030°12'0 0.0
2016-Jun-20 20:33N 59°57' E 030°12'0 0.0
2016-Jun-20 19:33N 59°57' E 030°12'0 0.0
2016-Jun-20 18:33N 59°57' E 030°12'0 0.0
2016-Jun-20 17:33N 59°57' E 030°12'0 0.0
2016-Jun-20 16:33N 59°57' E 030°12'0 0.0
2016-Jun-20 15:33N 59°57' E 030°12'0 0.0
2016-Jun-20 14:33N 59°57' E 030°12'0 0.0
2016-Jun-20 13:33N 59°57' E 030°12'0 0.0
2016-Jun-20 12:33N 59°57' E 030°12'0 0.0
2016-Jun-20 11:33N 59°57' E 030°12'0 0.0
2016-Jun-20 10:33N 59°57' E 030°12'0 0.0
2016-Jun-20 09:33N 59°57' E 030°12'0 0.0
2016-Jun-20 08:33N 59°57' E 030°12'0 0.0
2016-Jun-20 07:33N 59°57' E 030°12'0 0.0
2016-Jun-20 06:33N 59°57' E 030°12'0 0.0
2016-Jun-20 05:33N 59°57' E 030°12'0 0.0
2016-Jun-20 04:33N 59°57' E 030°12'0 0.0
2016-Jun-20 03:33N 59°57' E 030°12'5 5.1
2016-Jun-20 02:33N 59°55' E 030°01'1110.7
2016-Jun-20 01:31N 59°60' E 029°41'1513.3
2016-Jun-20 00:22N 60°02' E 029°11'1315.9
2016-Jun-19 23:34N 60°02' E 028°45'1515.2
2016-Jun-19 22:34N 60°07' E 028°16'1615.9
2016-Jun-19 21:33N 60°10' E 027°45'1615.9
2016-Jun-19 20:34N 60°02' E 027°17'1515.1
2016-Jun-19 19:33N 59°59' E 026°48'1615.7
2016-Jun-19 18:34N 59°56' E 026°17'2216.0
2016-Jun-19 17:10N 59°51' E 025°34'3014.8
2016-Jun-19 15:10N 59°37' E 024°42'912.5
2016-Jun-19 14:29N 59°29' E 024°46'2 0.2
2016-Jun-19 05:29N 59°27' E 024°46'0 0.0
2016-Jun-19 04:32N 59°27' E 024°46'0 0.1
2016-Jun-19 03:33N 59°27' E 024°46'7 6.7
2016-Jun-19 02:33N 59°30' E 024°34'2417.8
2016-Jun-19 01:14N 59°28' E 023°47'1418.0
2016-Jun-19 00:29N 59°27' E 023°21'35317.7
2016-Jun-18 04:32N 55°33' E 015°09'1818.1
2016-Jun-18 03:33N 55°26' E 014°41'1818.3
2016-Jun-18 02:34N 55°11' E 014°22'1817.9
2016-Jun-18 01:33N 54°59' E 013°58'2318.2
2016-Jun-18 00:18N 54°52' E 013°21'4616.8
2016-Jun-17 21:33N 54°28' E 012°13'1615.7
2016-Jun-17 20:33N 54°13' E 012°04'4 0.4
2016-Jun-17 08:29N 54°09' E 012°06'0 0.0
2016-Jun-17 07:11N 54°09' E 012°06'0 0.0
2016-Jun-17 06:29N 54°09' E 012°06'2 0.6
2016-Jun-17 03:32N 54°11' E 012°06'1111.3
2016-Jun-17 02:33N 54°20' E 011°56'1717.4
2016-Jun-17 01:33N 54°29' E 011°30'1817.7
2016-Jun-17 00:33N 54°38' E 011°03'1818.2
2016-Jun-16 23:34N 54°55' E 010°53'2020.2
2016-Jun-16 22:33N 55°14' E 011°06'7117.5
2016-Jun-16 18:31N 56°20' E 011°47'2020.8
2016-Jun-16 17:32N 56°13' E 012°21'1616.6
2016-Jun-16 16:34N 56°01' E 012°41'1615.7
2016-Jun-16 15:34N 55°45' E 012°41'3 3.1
2016-Jun-16 14:31N 55°43' E 012°37'0 0.0
2016-Jun-16 13:31N 55°43' E 012°37'0 0.0
2016-Jun-16 12:31N 55°43' E 012°37'0 0.0
2016-Jun-16 11:31N 55°43' E 012°37'0 0.0
2016-Jun-16 10:31N 55°43' E 012°37'0 0.0
2016-Jun-16 09:31N 55°43' E 012°37'0 0.0
2016-Jun-16 08:31N 55°43' E 012°37'0 0.0
2016-Jun-16 07:31N 55°43' E 012°37'0 0.0
2016-Jun-16 06:31N 55°43' E 012°37'0 0.0
2016-Jun-16 05:31N 55°43' E 012°37'0 0.1
2016-Jun-16 04:33N 55°43' E 012°37'9 8.9
2016-Jun-16 03:33N 55°51' E 012°40'1211.9
2016-Jun-16 02:33N 56°03' E 012°38'1515.0
2016-Jun-16 01:33N 56°12' E 012°16'1714.6
2016-Jun-16 00:24N 56°26' E 011°59'1315.5
2016-Jun-15 23:33N 56°39' E 011°55'1615.9
2016-Jun-15 22:33N 56°54' E 011°47'1616.0
2016-Jun-15 21:33N 57°09' E 011°36'1615.6
2016-Jun-15 20:33N 57°24' E 011°28'1413.9
2016-Jun-15 19:33N 57°34' E 011°11'  
Track history (hours):
 
Tides and Currents Weather Stations Pressure Air Temp Water Temp Dewpoint Dewpoint Depression Visibility Wind Speed Wind Dir Waves Ship Positions

Serenade Of The Seas

Operator: Royal Caribbean Cruises Ltd

Last reported at 2016-Jun-25 19:33 UTC. Time now 2016-Jun-25 19:43 UTC.
Position N 59°21' E 018°08'.

Length 294 m; draft 8.6 m.

Type: Ship. MMSI: 311492000.

Date/timePositionNaut miles runAvg speedWind from/ knotsBaromVisibWave heightAir tempDewpointWater temp
2016-Jun-25 19:33N 59°21' E 018°08'0 0.0
2016-Jun-25 18:33N 59°21' E 018°08'0 0.0
2016-Jun-25 17:33N 59°21' E 018°08'0 0.0
2016-Jun-25 16:33N 59°21' E 018°08'0 0.0
2016-Jun-25 15:33N 59°21' E 018°08'0 0.0
2016-Jun-25 14:33N 59°21' E 018°08'0 0.0
2016-Jun-25 13:33N 59°21' E 018°08'0 0.0
2016-Jun-25 12:33N 59°21' E 018°08'0 0.0
2016-Jun-25 11:33N 59°21' E 018°08'0 0.0
2016-Jun-25 10:30N 59°21' E 018°08'0 0.0
2016-Jun-25 09:30N 59°21' E 018°08'2 2.2
2016-Jun-25 08:31N 59°20' E 018°12'  
2016-Jun-23 04:07N 59°15' E 021°52'5 8.6
2016-Jun-23 03:33N 59°18' E 021°59'9 8.7
2016-Jun-23 02:33N 59°23' E 022°13'9 8.8
2016-Jun-23 01:34N 59°28' E 022°27'11 8.7
2016-Jun-23 00:21N 59°32' E 022°46'7 8.8
2016-Jun-22 23:34N 59°34' E 022°59'9 8.8
2016-Jun-22 22:33N 59°37' E 023°16'9 8.8
2016-Jun-22 21:34N 59°39' E 023°32'9 8.8
2016-Jun-22 20:34N 59°42' E 023°49'9 8.8
2016-Jun-22 19:33N 59°44' E 024°06'9 8.7
2016-Jun-22 18:33N 59°47' E 024°22'9 8.7
2016-Jun-22 17:33N 59°50' E 024°38'21 1.3
2016-Jun-22 01:31N 59°55' E 025°19'2316.0
2016-Jun-22 00:04N 59°57' E 026°05'917.1
2016-Jun-21 23:33N 59°60' E 026°22'1717.2
2016-Jun-21 22:34N 59°60' E 026°57'1716.9
2016-Jun-21 21:33N 60°07' E 027°28'1616.2
2016-Jun-21 20:33N 60°10' E 027°60'1717.2
2016-Jun-21 19:33N 60°04' E 028°31'3715.2
2016-Jun-21 17:08N 59°59' E 029°44'610.9
2016-Jun-21 16:33N 59°56' E 029°55'8 8.1
2016-Jun-21 15:33N 59°57' E 030°12'0 0.0
2016-Jun-21 14:33N 59°57' E 030°12'0 0.0
2016-Jun-21 13:33N 59°57' E 030°12'0 0.0
2016-Jun-21 12:33N 59°57' E 030°12'0 0.0
2016-Jun-21 11:33N 59°57' E 030°12'0 0.0
2016-Jun-21 10:33N 59°57' E 030°12'0 0.0
2016-Jun-21 09:33N 59°57' E 030°12'0 0.0
2016-Jun-21 08:33N 59°57' E 030°12'0 0.0
2016-Jun-21 07:33N 59°57' E 030°12'0 0.0
2016-Jun-21 05:33N 59°57' E 030°12'0 0.0
2016-Jun-21 04:33N 59°57' E 030°12'0 0.0
2016-Jun-21 03:33N 59°57' E 030°12'0 0.0
2016-Jun-21 02:33N 59°57' E 030°12'0 0.0
2016-Jun-21 01:33N 59°57' E 030°12'0 0.0
2016-Jun-21 00:33N 59°57' E 030°12'0 0.0
2016-Jun-20 23:33N 59°57' E 030°12'0 0.0
2016-Jun-20 22:33N 59°57' E 030°12'0 0.0
2016-Jun-20 21:33N 59°57' E 030°12'0 0.0
2016-Jun-20 20:33N 59°57' E 030°12'0 0.0
2016-Jun-20 19:33N 59°57' E 030°12'0 0.0
2016-Jun-20 18:33N 59°57' E 030°12'0 0.0
2016-Jun-20 17:33N 59°57' E 030°12'0 0.0
2016-Jun-20 16:33N 59°57' E 030°12'0 0.0
2016-Jun-20 15:33N 59°57' E 030°12'0 0.0
2016-Jun-20 14:33N 59°57' E 030°12'0 0.0
2016-Jun-20 13:33N 59°57' E 030°12'0 0.0
2016-Jun-20 12:33N 59°57' E 030°12'0 0.0
2016-Jun-20 11:33N 59°57' E 030°12'0 0.0
2016-Jun-20 10:33N 59°57' E 030°12'0 0.0
2016-Jun-20 09:33N 59°57' E 030°12'0 0.0
2016-Jun-20 08:33N 59°57' E 030°12'0 0.0
2016-Jun-20 07:33N 59°57' E 030°12'0 0.0
2016-Jun-20 06:33N 59°57' E 030°12'0 0.0
2016-Jun-20 05:33N 59°57' E 030°12'0 0.0
2016-Jun-20 04:33N 59°57' E 030°12'0 0.0
2016-Jun-20 03:33N 59°57' E 030°12'5 5.1
2016-Jun-20 02:33N 59°55' E 030°01'1110.7
2016-Jun-20 01:31N 59°60' E 029°41'1513.3
2016-Jun-20 00:22N 60°02' E 029°11'1315.9
2016-Jun-19 23:34N 60°02' E 028°45'1515.2
2016-Jun-19 22:34N 60°07' E 028°16'1615.9
2016-Jun-19 21:33N 60°10' E 027°45'1615.9
2016-Jun-19 20:34N 60°02' E 027°17'1515.1
2016-Jun-19 19:33N 59°59' E 026°48'1615.7
2016-Jun-19 18:34N 59°56' E 026°17'2216.0
2016-Jun-19 17:10N 59°51' E 025°34'3014.8
2016-Jun-19 15:10N 59°37' E 024°42'912.5
2016-Jun-19 14:29N 59°29' E 024°46'2 0.2
2016-Jun-19 05:29N 59°27' E 024°46'0 0.0
2016-Jun-19 04:32N 59°27' E 024°46'0 0.1
2016-Jun-19 03:33N 59°27' E 024°46'7 6.7
2016-Jun-19 02:33N 59°30' E 024°34'2417.8
2016-Jun-19 01:14N 59°28' E 023°47'1418.0
2016-Jun-19 00:29N 59°27' E 023°21'35317.7
2016-Jun-18 04:32N 55°33' E 015°09'1818.1
2016-Jun-18 03:33N 55°26' E 014°41'1818.3
2016-Jun-18 02:34N 55°11' E 014°22'1817.9
2016-Jun-18 01:33N 54°59' E 013°58'2318.2
2016-Jun-18 00:18N 54°52' E 013°21'4616.8
2016-Jun-17 21:33N 54°28' E 012°13'1615.7
2016-Jun-17 20:33N 54°13' E 012°04'4 0.4
2016-Jun-17 08:29N 54°09' E 012°06'0 0.0
2016-Jun-17 07:11N 54°09' E 012°06'0 0.0
2016-Jun-17 06:29N 54°09' E 012°06'2 0.6
2016-Jun-17 03:32N 54°11' E 012°06'1111.3
2016-Jun-17 02:33N 54°20' E 011°56'1717.4
2016-Jun-17 01:33N 54°29' E 011°30'1817.7
2016-Jun-17 00:33N 54°38' E 011°03'1818.2
2016-Jun-16 23:34N 54°55' E 010°53'2020.2
2016-Jun-16 22:33N 55°14' E 011°06'7117.5
2016-Jun-16 18:31N 56°20' E 011°47'2020.8
2016-Jun-16 17:32N 56°13' E 012°21'1616.6
2016-Jun-16 16:34N 56°01' E 012°41'1615.7
2016-Jun-16 15:34N 55°45' E 012°41'3 3.1
2016-Jun-16 14:31N 55°43' E 012°37'0 0.0
2016-Jun-16 13:31N 55°43' E 012°37'0 0.0
2016-Jun-16 12:31N 55°43' E 012°37'0 0.0
2016-Jun-16 11:31N 55°43' E 012°37'0 0.0
2016-Jun-16 10:31N 55°43' E 012°37'0 0.0
2016-Jun-16 09:31N 55°43' E 012°37'0 0.0
2016-Jun-16 08:31N 55°43' E 012°37'0 0.0
2016-Jun-16 07:31N 55°43' E 012°37'0 0.0
2016-Jun-16 06:31N 55°43' E 012°37'0 0.0
2016-Jun-16 05:31N 55°43' E 012°37'0 0.1
2016-Jun-16 04:33N 55°43' E 012°37'9 8.9
2016-Jun-16 03:33N 55°51' E 012°40'1211.9
2016-Jun-16 02:33N 56°03' E 012°38'1515.0
2016-Jun-16 01:33N 56°12' E 012°16'1714.6
2016-Jun-16 00:24N 56°26' E 011°59'1315.5
2016-Jun-15 23:33N 56°39' E 011°55'1615.9
2016-Jun-15 22:33N 56°54' E 011°47'1616.0
2016-Jun-15 21:33N 57°09' E 011°36'1615.6
2016-Jun-15 20:33N 57°24' E 011°28'1413.9
2016-Jun-15 19:33N 57°34' E 011°11'  

Dump ship's entire track history